Time;durP1;ratioP1;P1;durP2;ratioP2;P2;SDS_P1;SDS_P2;PMS_P1;PMS_P2;Temp;Humidity;BMP_temperature;BMP_pressure;BME280_temperature;BME280_humidity;BME280_pressure;Samples;Min_cycle;Max_cycle;Signal;HPM_P1;HPM_P2
2022/04/30 00:01:54;;;;;;;4.47;2.33;;;;;;;6.11;100.00;100656.44;6280044;22;20053;-64
2022/04/30 00:04:45;;;;;;;3.85;2.30;;;;;;;6.18;100.00;100653.00;6279885;22;20089;-66
2022/04/30 00:07:29;;;;;;;4.63;2.67;;;;;;;6.17;100.00;100652.97;6278149;22;20058;-64
2022/04/30 00:10:13;;;;;;;3.05;1.98;;;;;;;6.08;100.00;100645.84;6257224;22;20018;-65
2022/04/30 00:12:58;;;;;;;5.15;2.65;;;;;;;6.00;100.00;100649.25;6224023;22;20073;-66
2022/04/30 00:15:44;;;;;;;3.75;2.17;;;;;;;6.05;100.00;100653.72;6257533;22;20018;-67
2022/04/30 00:18:28;;;;;;;3.53;2.47;;;;;;;5.82;100.00;100627.97;6227785;22;20331;-64
2022/04/30 00:21:12;;;;;;;3.30;2.55;;;;;;;5.94;100.00;100655.34;6249235;22;20054;-65
2022/04/30 00:23:57;;;;;;;4.07;2.95;;;;;;;5.84;100.00;100637.66;6248794;22;20022;-65
2022/04/30 00:26:42;;;;;;;3.42;2.50;;;;;;;5.76;100.00;100635.75;6278937;22;20341;-66
2022/04/30 00:29:30;;;;;;;4.63;2.30;;;;;;;5.82;100.00;100670.97;6258987;22;20069;-67
2022/04/30 00:32:15;;;;;;;3.60;2.47;;;;;;;5.89;100.00;100664.03;6257567;22;20092;-64
2022/04/30 00:35:00;;;;;;;3.77;2.40;;;;;;;5.74;100.00;100648.00;6227169;22;20026;-64
2022/04/30 00:37:44;;;;;;;7.63;2.97;;;;;;;5.79;100.00;100663.00;6259140;22;20245;-65
2022/04/30 00:40:29;;;;;;;4.53;2.80;;;;;;;5.61;100.00;100640.84;6227840;22;20026;-64
2022/04/30 00:43:13;;;;;;;4.57;2.42;;;;;;;5.72;100.00;100658.50;6282672;22;20065;-64
2022/04/30 00:45:57;;;;;;;3.47;2.60;;;;;;;5.59;100.00;100655.69;6279492;22;20022;-73
2022/04/30 00:48:43;;;;;;;4.38;2.97;;;;;;;5.64;100.00;100669.78;6281929;22;20303;-65
2022/04/30 00:51:29;;;;;;;9.98;3.25;;;;;;;5.59;100.00;100661.84;6245951;22;20018;-66
2022/04/30 00:54:14;;;;;;;6.07;2.90;;;;;;;5.51;100.00;100668.75;6248307;22;20018;-64
2022/04/30 00:57:03;;;;;;;4.78;3.10;;;;;;;5.29;100.00;100636.88;6259149;22;20081;-64
2022/04/30 00:59:58;;;;;;;6.85;3.10;;;;;;;5.47;100.00;100679.19;6258054;22;20018;-73
2022/04/30 01:02:44;;;;;;;;;;;;;;;5.51;100.00;100679.28;6227395;22;20034;-65
2022/04/30 01:06:00;;;;;;;10.57;3.80;;;;;;;5.56;100.00;100685.47;6227318;22;19986;-65
2022/04/30 01:08:47;;;;;;;5.32;3.83;;;;;;;5.57;100.00;100662.69;6259235;22;20386;-64
2022/04/30 01:11:31;;;;;;;9.45;4.93;;;;;;;5.73;100.00;100672.56;6258550;22;20061;-63
2022/04/30 01:14:18;;;;;;;6.50;3.83;;;;;;;5.82;100.00;100676.25;6281580;22;20022;-64
2022/04/30 01:17:05;;;;;;;11.48;5.57;;;;;;;5.81;100.00;100671.81;6279087;22;20094;-64
2022/04/30 01:19:51;;;;;;;11.45;5.35;;;;;;;5.66;100.00;100641.78;6281628;22;20018;-63
2022/04/30 01:22:48;;;;;;;8.52;4.18;;;;;;;5.86;100.00;100678.06;6226839;22;20260;-64
2022/04/30 01:25:33;;;;;;;9.07;4.18;;;;;;;5.87;100.00;100671.03;6224955;22;20102;-71
2022/04/30 01:28:19;;;;;;;11.68;4.68;;;;;;;5.93;100.00;100669.34;6282354;22;20026;-66
2022/04/30 01:37:22;;;;;;;8.27;4.20;;;;;;;6.08;100.00;100679.19;6258140;22;20062;-65
2022/04/30 01:37:25;;;;;;;4.60;3.05;;;;;;;5.96;100.00;100681.66;6133949;23;20036;-64
2022/04/30 01:40:11;;;;;;;5.18;2.67;;;;;;;5.80;100.00;100680.56;6132899;23;20105;-64
2022/04/30 01:43:00;;;;;;;5.43;2.80;;;;;;;5.76;100.00;100676.13;6104136;23;20448;-65
2022/04/30 01:45:44;;;;;;;4.18;2.97;;;;;;;5.82;100.00;100686.78;6132717;23;20072;-64
2022/04/30 01:48:30;;;;;;;5.43;2.70;;;;;;;5.84;100.00;100685.03;6102534;23;20041;-66
2022/04/30 01:51:14;;;;;;;;;;;;;;;5.65;100.00;100672.44;6133632;23;20024;-64
2022/04/30 01:53:58;;;;;;;3.95;2.55;;;;;;;5.61;100.00;100689.03;6132814;23;19912;-65
2022/04/30 01:56:42;;;;;;;4.63;2.80;;;;;;;5.44;100.00;100687.03;6123401;23;20152;-64
2022/04/30 01:59:32;;;;;;;4.40;3.10;;;;;;;5.57;100.00;100691.63;6133109;23;20040;-63
2022/04/30 02:02:16;;;;;;;3.63;2.87;;;;;;;5.44;100.00;100684.41;6103463;23;20060;-64
2022/04/30 02:05:07;;;;;;;3.30;2.65;;;;;;;5.37;100.00;100695.72;6102266;23;20378;-66
2022/04/30 02:08:14;;;;;;;2.90;2.47;;;;;;;5.51;100.00;100694.16;6083110;23;20037;-68
2022/04/30 02:10:59;;;;;;;4.35;3.15;;;;;;;5.49;100.00;100704.66;6088790;23;20494;-63
2022/04/30 02:13:52;;;;;;;3.13;2.58;;;;;;;5.42;100.00;100692.25;6159822;22;20023;-65
2022/04/30 02:16:39;;;;;;;3.65;2.70;;;;;;;5.57;100.00;100703.03;6291336;22;20023;-63
2022/04/30 02:22:38;;;;;;;5.95;2.88;;;;;;;5.44;100.00;100693.19;6174925;23;20178;-65
2022/04/30 02:25:23;;;;;;;4.47;2.88;;;;;;;5.40;100.00;100683.47;6145599;23;20431;-66
2022/04/30 02:28:08;;;;;;;4.93;3.17;;;;;;;5.60;100.00;100703.06;6177475;23;20056;-64
2022/04/30 02:30:56;;;;;;;5.45;2.88;;;;;;;5.52;100.00;100712.59;6185150;23;20020;-65
2022/04/30 02:33:41;;;;;;;4.07;2.80;;;;;;;5.51;100.00;100717.84;6177920;23;20047;-64
2022/04/30 02:36:26;;;;;;;5.93;3.25;;;;;;;5.50;100.00;100714.31;6186687;23;20076;-65
2022/04/30 02:39:10;;;;;;;3.10;2.50;;;;;;;5.65;100.00;100711.91;6157046;23;20121;-64
2022/04/30 02:41:55;;;;;;;4.78;3.10;;;;;;;5.58;100.00;100710.03;6189152;23;20059;-65
2022/04/30 02:44:40;;;;;;;4.10;3.10;;;;;;;5.56;100.00;100718.78;6188162;23;20016;-66
2022/04/30 02:47:24;;;;;;;4.32;2.97;;;;;;;5.39;100.00;100700.13;6158068;23;20077;-64
2022/04/30 02:50:11;;;;;;;4.72;3.25;;;;;;;5.56;100.00;100716.13;6186627;23;20076;-65
2022/04/30 02:52:56;;;;;;;4.25;2.70;;;;;;;5.58;100.00;100722.34;6147199;23;20024;-70
2022/04/30 02:55:41;;;;;;;5.20;2.97;;;;;;;5.62;100.00;100713.63;6157485;23;20081;-68
2022/04/30 03:01:28;;;;;;;4.50;3.05;;;;;;;5.40;100.00;100722.94;6249311;22;20034;-64
2022/04/30 03:04:26;;;;;;;3.22;2.55;;;;;;;5.35;100.00;100721.97;6250363;22;20023;-65
2022/04/30 03:07:11;;;;;;;4.95;3.28;;;;;;;5.31;100.00;100714.00;6228354;22;20070;-67
2022/04/30 03:09:55;;;;;;;3.83;3.22;;;;;;;5.37;100.00;100722.88;6264846;22;20081;-67
2022/04/30 03:12:40;;;;;;;4.35;2.90;;;;;;;5.38;100.00;100723.78;6286101;22;20017;-64
2022/04/30 03:15:27;;;;;;;4.47;2.63;;;;;;;5.53;100.00;100729.28;6287826;22;20018;-65
2022/04/30 03:24:20;;;;;;;3.42;2.63;;;;;;;5.50;100.00;100730.09;6264353;22;20018;-65
2022/04/30 03:27:05;;;;;;;4.47;2.92;;;;;;;5.60;100.00;100744.25;6247928;22;20023;-65
2022/04/30 03:29:49;;;;;;;3.75;2.83;;;;;;;5.85;100.00;100736.78;6280139;22;20022;-65
2022/04/30 03:32:33;;;;;;;3.72;2.83;;;;;;;5.85;100.00;100728.03;6227841;22;20499;-65
2022/04/30 03:35:18;;;;;;;6.55;2.95;;;;;;;5.75;100.00;100745.41;6259827;22;20220;-66
2022/04/30 03:38:02;;;;;;;3.30;2.60;;;;;;;5.80;100.00;100751.59;6282322;22;20023;-64
2022/04/30 03:40:47;;;;;;;5.72;3.10;;;;;;;5.81;100.00;100744.66;6282375;22;20304;-67
2022/04/30 03:43:31;;;;;;;4.55;2.75;;;;;;;5.89;100.00;100743.00;6257860;22;20070;-66
2022/04/30 03:46:17;;;;;;;4.43;2.80;;;;;;;5.95;100.00;100762.41;6227816;22;20498;-65
2022/04/30 03:49:03;;;;;;;3.50;2.70;;;;;;;6.08;100.00;100761.69;6280054;22;20038;-66
2022/04/30 03:51:47;;;;;;;5.65;2.88;;;;;;;5.91;100.00;100746.53;6281680;22;20105;-66
2022/04/30 03:54:32;;;;;;;3.55;2.50;;;;;;;6.02;100.00;100761.63;6282136;22;20022;-65
2022/04/30 03:57:16;;;;;;;4.97;2.67;;;;;;;6.06;100.00;100762.53;6259606;22;20018;-66
2022/04/30 04:00:01;;;;;;;5.38;2.85;;;;;;;6.05;100.00;100761.63;6282239;22;20258;-67
2022/04/30 04:02:46;;;;;;;5.78;3.10;;;;;;;6.05;100.00;100758.16;6258245;22;20023;-68
2022/04/30 04:05:31;;;;;;;4.10;2.67;;;;;;;5.87;100.00;100761.41;6231153;22;20018;-65
2022/04/30 04:08:20;;;;;;;4.00;2.93;;;;;;;5.97;100.00;100763.28;6250280;22;20149;-65
2022/04/30 04:11:10;;;;;;;6.97;3.08;;;;;;;6.08;100.00;100759.06;6286579;22;20019;-65
2022/04/30 04:20:00;;;;;;;3.70;1.90;;;;;;;6.13;100.00;100780.19;6279194;22;20061;-66
2022/04/30 04:22:45;;;;;;;2.88;1.98;;;;;;;6.23;100.00;100782.97;6281660;22;20019;-65
2022/04/30 04:28:33;;;;;;;4.50;1.65;;;;;;;6.06;100.00;100776.59;6279404;22;20452;-66
2022/04/30 04:31:22;;;;;;;2.30;1.77;;;;;;;6.05;100.00;100780.06;6226968;22;20182;-65
2022/04/30 04:34:06;;;;;;;1.80;1.40;;;;;;;6.15;100.00;100786.34;6257994;22;20078;-65
2022/04/30 04:36:51;;;;;;;2.47;1.83;;;;;;;6.04;100.00;100790.56;6258336;22;20439;-65
2022/04/30 04:39:35;;;;;;;1.63;1.40;;;;;;;6.26;100.00;100793.56;6281569;22;20097;-66
2022/04/30 04:42:22;;;;;;;2.92;1.63;;;;;;;6.29;100.00;100793.56;6236312;22;20069;-72
2022/04/30 04:45:08;;;;;;;1.63;1.52;;;;;;;6.27;100.00;100794.41;6261806;22;20030;-65
2022/04/30 04:47:54;;;;;;;2.28;1.52;;;;;;;6.30;100.00;100768.13;6285487;22;20487;-67
2022/04/30 04:50:39;;;;;;;2.67;1.73;;;;;;;6.66;100.00;100798.47;6292023;22;20026;-67
2022/04/30 04:53:23;;;;;;;2.35;1.70;;;;;;;6.55;100.00;100804.44;6265347;22;20279;-65
2022/04/30 04:56:08;;;;;;;2.25;1.70;;;;;;;6.65;100.00;100803.72;6252324;22;20026;-67
2022/04/30 04:58:52;;;;;;;2.70;1.70;;;;;;;6.77;100.00;100770.44;6285789;22;20070;-65
2022/04/30 05:01:37;;;;;;;4.43;1.95;;;;;;;6.68;100.00;100788.81;6286076;22;20019;-66
2022/04/30 05:04:23;;;;;;;2.28;1.60;;;;;;;6.93;100.00;100788.19;6262450;22;20065;-64
2022/04/30 05:07:08;;;;;;;4.55;1.88;;;;;;;7.14;100.00;100806.00;6262408;22;20441;-65
2022/04/30 05:09:53;;;;;;;2.20;1.80;;;;;;;7.14;100.00;100784.91;6284163;22;20022;-65
2022/04/30 05:12:37;;;;;;;3.38;1.95;;;;;;;7.25;100.00;100807.00;6262384;22;20505;-65
2022/04/30 05:15:22;;;;;;;3.20;1.90;;;;;;;7.09;100.00;100773.44;6252376;22;20062;-66
2022/04/30 05:18:08;;;;;;;2.20;1.97;;;;;;;7.08;100.00;100800.69;6262940;22;20023;-64
2022/04/30 05:20:53;;;;;;;3.17;2.00;;;;;;;6.80;100.00;100802.13;6286303;22;20023;-69
2022/04/30 05:23:38;;;;;;;;;;;;;;;6.93;100.00;100811.06;6252561;22;20034;-67
2022/04/30 05:26:22;;;;;;;2.83;2.10;;;;;;;6.52;100.00;100783.34;6285541;22;19958;-66
2022/04/30 05:29:07;;;;;;;3.90;1.98;;;;;;;6.73;100.00;100815.22;6262803;22;20185;-66
2022/04/30 05:31:51;;;;;;;2.95;1.73;;;;;;;6.75;100.00;100827.56;6253301;22;20022;-72
2022/04/30 05:34:35;;;;;;;4.25;1.75;;;;;;;6.77;100.00;100824.94;6252218;22;20022;-66
2022/04/30 05:37:20;;;;;;;1.75;1.48;;;;;;;6.77;100.00;100830.22;6263116;22;20018;-66
2022/04/30 05:40:05;;;;;;;2.25;1.80;;;;;;;7.07;100.00;100827.91;6262524;22;20335;-66
2022/04/30 05:42:49;;;;;;;2.28;1.58;;;;;;;7.06;100.00;100794.50;6252744;22;20081;-67
2022/04/30 05:45:34;;;;;;;2.50;1.60;;;;;;;7.36;100.00;100837.03;6285999;22;20101;-66
2022/04/30 05:48:19;;;;;;;6.50;1.83;;;;;;;7.25;100.00;100828.13;6231868;22;20027;-67
2022/04/30 05:51:04;;;;;;;1.92;1.50;;;;;;;7.45;100.00;100830.09;6263178;22;20109;-67
2022/04/30 05:53:49;;;;;;;1.95;1.33;;;;;;;7.60;100.00;100830.19;6286209;22;20325;-67
2022/04/30 05:56:33;;;;;;;2.97;1.60;;;;;;;7.86;100.00;100828.66;6228914;22;20019;-67
2022/04/30 05:59:18;;;;;;;2.13;1.60;;;;;;;7.92;100.00;100825.19;6285941;22;20022;-66
2022/04/30 06:02:04;;;;;;;1.55;1.20;;;;;;;7.81;100.00;100818.94;6261716;22;20811;-69
2022/04/30 06:04:49;;;;;;;1.73;1.50;;;;;;;7.54;100.00;100806.41;6209980;22;20453;-67
2022/04/30 06:07:33;;;;;;;1.75;1.10;;;;;;;7.60;100.00;100834.63;6283934;22;20023;-68
2022/04/30 06:10:18;;;;;;;2.10;1.23;;;;;;;7.37;100.00;100829.13;6230804;22;20058;-71
2022/04/30 06:13:02;;;;;;;3.20;1.23;;;;;;;7.37;100.00;100802.75;6230838;22;20019;-69
2022/04/30 06:15:47;;;;;;;1.73;1.30;;;;;;;7.69;100.00;100827.66;6254205;22;20103;-67
2022/04/30 06:18:31;;;;;;;3.63;1.10;;;;;;;7.77;100.00;100827.72;6264387;22;20133;-66
2022/04/30 06:21:16;;;;;;;2.55;1.23;;;;;;;7.71;100.00;100836.47;6254348;22;20022;-70
2022/04/30 06:24:00;;;;;;;4.13;1.58;;;;;;;7.56;100.00;100841.59;6211886;22;20047;-71
2022/04/30 06:26:45;;;;;;;4.72;1.95;;;;;;;7.54;100.00;100839.81;6286193;22;20503;-68
2022/04/30 06:29:29;;;;;;;3.10;1.77;;;;;;;7.26;100.00;100836.03;6276995;22;20058;-66
2022/04/30 06:32:13;;;;;;;3.40;1.70;;;;;;;7.22;100.00;100831.59;6233431;22;20321;-66
2022/04/30 06:34:59;;;;;;;3.65;1.30;;;;;;;7.44;100.00;100830.06;6286986;22;20034;-64
2022/04/30 06:37:43;;;;;;;6.85;2.90;;;;;;;7.60;100.00;100837.25;6286775;22;20456;-66
2022/04/30 06:40:28;;;;;;;3.33;1.85;;;;;;;7.97;100.00;100837.56;6263882;22;20366;-72
2022/04/30 06:43:12;;;;;;;2.17;1.30;;;;;;;8.05;100.00;100841.16;6242765;22;20023;-67
2022/04/30 06:45:57;;;;;;;4.45;1.30;;;;;;;8.09;100.00;100829.72;6287650;22;20318;-66
2022/04/30 06:48:41;;;;;;;3.05;1.50;;;;;;;8.47;100.00;100825.56;6265152;22;20472;-65
2022/04/30 06:51:25;;;;;;;3.28;1.40;;;;;;;8.92;100.00;100836.38;6254462;22;20019;-67
2022/04/30 06:57:16;;;;;;;1.60;0.90;;;;;;;8.91;97.15;100816.06;6285688;22;20241;-67
2022/04/30 07:00:39;;;;;;;2.72;1.20;;;;;;;9.10;96.30;100827.63;6253625;22;20014;-65
2022/04/30 07:03:08;;;;;;;3.95;1.10;;;;;;;9.15;94.06;100834.66;6276292;22;20015;-66
2022/04/30 07:06:03;;;;;;;3.10;1.05;;;;;;;9.38;93.28;100846.19;6287469;22;20019;-66
2022/04/30 07:08:47;;;;;;;1.92;1.27;;;;;;;9.45;90.26;100828.53;6254074;22;20030;-66
2022/04/30 07:11:32;;;;;;;2.15;1.10;;;;;;;9.86;87.17;100844.47;6253448;22;20022;-65
2022/04/30 07:14:16;;;;;;;;;;;;;;;9.40;87.15;100840.88;6287891;22;20054;-68
2022/04/30 07:17:04;;;;;;;1.33;1.10;;;;;;;9.14;81.76;100800.28;6264579;22;20324;-67
2022/04/30 07:19:48;;;;;;;1.95;1.00;;;;;;;9.23;82.11;100814.38;6287646;22;20018;-66
2022/04/30 07:22:33;;;;;;;3.08;1.00;;;;;;;8.97;82.13;100824.03;6253840;22;20046;-66
2022/04/30 07:25:17;;;;;;;5.05;1.40;;;;;;;8.92;81.98;100828.44;6253921;22;20023;-68
2022/04/30 07:28:01;;;;;;;2.05;1.20;;;;;;;8.66;84.12;100822.16;6287008;22;20067;-65
2022/04/30 07:30:46;;;;;;;2.08;1.10;;;;;;;8.58;85.28;100838.84;6287043;22;20058;-69
2022/04/30 07:33:31;;;;;;;2.47;1.27;;;;;;;8.52;83.18;100825.59;6232615;22;20085;-66
2022/04/30 07:36:15;;;;;;;3.63;1.20;;;;;;;8.41;83.89;100841.41;6263427;22;20018;-66
2022/04/30 07:38:59;;;;;;;4.15;1.23;;;;;;;8.70;84.19;100839.78;6253329;22;20042;-66
2022/04/30 07:41:44;;;;;;;4.47;1.40;;;;;;;8.76;82.10;100841.59;6231885;22;20022;-67
2022/04/30 07:44:30;;;;;;;3.55;1.15;;;;;;;8.96;77.41;100847.84;6286931;22;20094;-68
2022/04/30 07:47:14;;;;;;;5.88;1.20;;;;;;;9.34;77.04;100841.75;6231636;22;20035;-66
2022/04/30 07:49:59;;;;;;;2.83;1.17;;;;;;;9.78;72.45;100839.19;6242076;22;20065;-65
2022/04/30 07:52:43;;;;;;;2.38;0.90;;;;;;;9.98;67.22;100842.69;6232583;22;20456;-71
2022/04/30 07:55:28;;;;;;;2.70;1.20;;;;;;;10.61;64.48;100839.97;6242197;22;20121;-67
2022/04/30 07:58:13;;;;;;;1.83;1.08;;;;;;;10.75;61.99;100848.75;6263697;22;20057;-69
2022/04/30 08:00:57;;;;;;;2.28;1.15;;;;;;;10.75;60.39;100842.53;6210550;22;20023;-67
2022/04/30 08:03:41;;;;;;;1.58;0.90;;;;;;;10.37;56.70;100829.44;6287262;22;20072;-67
2022/04/30 08:06:26;;;;;;;3.38;1.20;;;;;;;9.82;55.77;100843.59;6263577;22;20023;-66
2022/04/30 08:09:11;;;;;;;3.30;0.93;;;;;;;9.38;59.63;100843.53;6264710;22;20038;-67
2022/04/30 08:11:55;;;;;;;3.80;1.27;;;;;;;9.23;61.10;100834.69;6255882;22;20064;-71
2022/04/30 08:14:40;;;;;;;2.10;1.17;;;;;;;9.24;63.43;100832.06;6231599;22;20018;-72
2022/04/30 08:17:27;;;;;;;3.00;1.38;;;;;;;8.95;65.27;100841.66;6211267;22;20250;-70
2022/04/30 08:20:11;;;;;;;7.15;1.70;;;;;;;9.11;67.77;100843.47;6252230;22;20038;-70
2022/04/30 08:22:56;;;;;;;4.03;1.20;;;;;;;10.04;63.59;100860.38;6285539;22;20056;-66
2022/04/30 08:25:40;;;;;;;2.22;0.95;;;;;;;10.72;60.18;100854.06;6286708;22;20026;-67
2022/04/30 08:28:25;;;;;;;2.22;1.05;;;;;;;11.64;55.61;100857.16;6232030;22;20038;-67
2022/04/30 08:31:10;;;;;;;4.07;0.77;;;;;;;12.67;44.91;100844.66;6263496;22;20083;-71
2022/04/30 08:33:54;;;;;;;4.28;2.10;;;;;;;13.07;42.47;100843.34;6253356;22;20027;-71
2022/04/30 08:36:41;;;;;;;4.93;1.00;;;;;;;13.74;38.12;100835.25;6230789;22;20472;-78
2022/04/30 08:39:26;;;;;;;2.60;1.30;;;;;;;12.73;40.38;100793.13;6251270;22;20050;-66
2022/04/30 08:42:13;;;;;;;6.80;1.02;;;;;;;12.64;41.53;100834.06;6284817;22;20445;-69
2022/04/30 08:44:57;;;;;;;6.40;1.20;;;;;;;11.72;43.67;100835.84;6230141;22;20302;-68
2022/04/30 08:47:47;;;;;;;1.63;1.20;;;;;;;14.07;39.91;100832.00;6229075;22;20031;-68
2022/04/30 08:50:32;;;;;;;2.90;0.80;;;;;;;15.77;33.85;100833.84;6240928;22;20022;-67
2022/04/30 08:53:16;;;;;;;2.00;1.08;;;;;;;17.48;30.33;100837.13;6251567;22;20069;-65
2022/04/30 08:56:00;;;;;;;2.05;1.10;;;;;;;18.23;28.41;100849.91;6285553;22;20066;-66
2022/04/30 08:58:45;;;;;;;2.22;0.80;;;;;;;17.98;27.44;100842.66;6286226;22;20103;-67
2022/04/30 09:01:30;;;;;;;;;;;;;;;17.27;31.79;100840.44;6263358;22;20295;-68
2022/04/30 09:04:15;;;;;;;3.83;1.25;;;;;;;16.21;28.45;100830.94;6286257;22;19910;-66
2022/04/30 09:07:00;;;;;;;2.30;1.10;;;;;;;15.77;28.33;100831.16;6284955;22;20022;-67
2022/04/30 09:09:45;;;;;;;;;;;;;;;15.42;31.09;100823.97;6262984;22;20033;-65
2022/04/30 09:12:33;;;;;;;1.60;0.90;;;;;;;13.86;31.43;100825.25;6240793;22;19980;-67
2022/04/30 09:15:19;;;;;;;1.80;1.10;;;;;;;12.70;34.22;100818.00;6239405;22;20316;-66
2022/04/30 09:18:06;;;;;;;3.42;1.00;;;;;;;11.95;36.37;100820.59;6252386;22;20042;-65
2022/04/30 09:20:53;;;;;;;4.57;1.08;;;;;;;12.81;35.85;100817.88;6262658;22;20080;-67
2022/04/30 09:23:38;;;;;;;7.35;1.60;;;;;;;15.11;31.58;100782.78;6262354;22;20026;-65
2022/04/30 09:26:22;;;;;;;4.15;1.50;;;;;;;17.09;28.72;100822.25;6285545;22;20031;-65
2022/04/30 09:29:21;;;;;;;2.65;1.55;;;;;;;18.60;26.37;100815.47;6285397;22;20027;-67
2022/04/30 09:32:06;;;;;;;8.50;1.60;;;;;;;19.06;24.37;100812.84;6285970;22;20018;-67
2022/04/30 09:37:56;;;;;;;3.67;1.15;;;;;;;19.75;21.73;100802.94;6284870;22;20019;-66
2022/04/30 09:40:54;;;;;;;2.42;1.00;;;;;;;19.94;21.38;100794.97;6262546;22;20023;-67
2022/04/30 09:43:39;;;;;;;4.35;0.93;;;;;;;21.15;20.47;100811.09;6285619;22;20049;-66
2022/04/30 09:46:24;;;;;;;4.03;1.60;;;;;;;21.92;18.68;100804.69;6284458;22;20022;-66
2022/04/30 09:55:17;;;;;;;5.55;1.13;;;;;;;16.07;24.59;100801.88;6285530;22;20085;-66
2022/04/30 09:58:04;;;;;;;2.47;1.48;;;;;;;15.58;25.32;100789.78;6251703;22;20042;-65
2022/04/30 10:00:51;;;;;;;3.92;1.30;;;;;;;14.69;25.79;100801.50;6252404;22;20069;-65
2022/04/30 10:03:36;;;;;;;2.00;1.40;;;;;;;14.29;26.76;100798.75;6284705;22;20073;-65
2022/04/30 10:06:20;;;;;;;5.93;1.25;;;;;;;14.35;26.63;100766.59;6285139;22;20061;-66
2022/04/30 10:09:08;;;;;;;6.70;1.25;;;;;;;14.18;28.05;100794.47;6230913;22;20023;-65
2022/04/30 10:11:56;;;;;;;3.35;0.98;;;;;;;13.49;28.40;100776.09;6262066;22;20031;-65
2022/04/30 10:15:11;;;;;;;2.95;1.38;;;;;;;13.57;29.32;100811.50;6240476;22;20085;-69
2022/04/30 10:17:57;;;;;;;1.92;1.20;;;;;;;13.12;28.96;100800.66;6230356;22;20097;-62
2022/04/30 10:20:50;;;;;;;2.33;1.20;;;;;;;13.03;29.71;100801.66;6230305;22;20060;-66
2022/04/30 10:23:35;;;;;;;4.35;1.20;;;;;;;12.94;29.96;100758.28;6230776;22;20019;-63
2022/04/30 10:26:19;;;;;;;2.70;1.30;;;;;;;13.75;29.63;100799.66;6285885;22;20015;-66
2022/04/30 10:29:11;;;;;;;3.40;1.30;;;;;;;14.05;27.95;100790.28;6285242;22;20080;-65
2022/04/30 10:31:56;;;;;;;4.10;1.20;;;;;;;13.63;28.08;100792.78;6286337;22;20019;-64
2022/04/30 10:34:51;;;;;;;2.35;1.20;;;;;;;13.87;28.14;100780.81;6230313;22;20022;-64
2022/04/30 10:37:41;;;;;;;4.32;1.52;;;;;;;13.17;29.22;100762.41;6240707;22;20018;-65
2022/04/30 10:40:38;;;;;;;4.70;1.42;;;;;;;12.66;30.91;100748.91;6285479;22;20023;-66
2022/04/30 10:43:26;;;;;;;5.38;1.30;;;;;;;12.23;31.75;100771.59;6286092;22;20476;-64
2022/04/30 10:46:23;;;;;;;4.38;1.23;;;;;;;12.11;32.53;100790.31;6252680;22;20164;-67
2022/04/30 10:49:08;;;;;;;6.20;1.40;;;;;;;12.26;31.46;100708.59;6262332;22;20644;-66
2022/04/30 10:51:56;;;;;;;3.78;1.35;;;;;;;13.25;30.94;100791.56;6251758;22;20085;-64
2022/04/30 10:54:45;;;;;;;1.98;1.10;;;;;;;12.81;30.60;100778.84;6285618;22;20015;-65
2022/04/30 10:57:41;;;;;;;2.70;1.38;;;;;;;12.88;31.11;100793.84;6285277;22;20066;-68
2022/04/30 11:00:26;;;;;;;2.72;1.33;;;;;;;12.58;31.79;100786.22;6286747;22;20015;-67
2022/04/30 11:03:11;;;;;;;;;;;;;;;12.48;32.54;100784.59;6233784;22;20345;-63
2022/04/30 11:05:56;;;;;;;4.28;1.42;;;;;;;12.70;31.26;100782.56;6254009;22;19937;-64
2022/04/30 11:08:40;;;;;;;1.90;1.25;;;;;;;12.69;31.05;100776.34;6264261;22;20034;-64
2022/04/30 11:11:28;;;;;;;4.78;1.33;;;;;;;12.49;31.10;100751.75;6254039;22;20326;-65
2022/04/30 11:14:13;;;;;;;2.92;1.27;;;;;;;12.73;30.46;100782.50;6286542;22;20023;-69
2022/04/30 11:16:57;;;;;;;3.67;1.17;;;;;;;12.52;30.70;100788.97;6242874;22;20342;-65
2022/04/30 11:19:44;;;;;;;3.35;1.15;;;;;;;12.53;31.41;100790.72;6254719;22;20066;-64
2022/04/30 11:22:29;;;;;;;3.38;1.48;;;;;;;12.56;31.02;100785.38;6233054;22;20027;-65
2022/04/30 11:25:14;;;;;;;4.07;1.40;;;;;;;12.50;31.80;100782.78;6277417;22;20330;-65
2022/04/30 11:27:58;;;;;;;3.53;1.45;;;;;;;12.28;32.46;100746.69;6283916;22;20077;-67
2022/04/30 11:30:45;;;;;;;4.53;1.42;;;;;;;12.07;32.79;100776.16;6287192;22;20448;-65
2022/04/30 11:33:37;;;;;;;2.95;1.40;;;;;;;11.56;35.17;100783.69;6264059;22;20404;-66
2022/04/30 11:36:22;;;;;;;4.55;1.63;;;;;;;11.61;36.54;100789.88;6242057;22;20065;-66
2022/04/30 11:39:06;;;;;;;5.38;2.05;;;;;;;11.66;36.83;100791.59;6253619;22;20445;-65
2022/04/30 11:41:53;;;;;;;2.78;1.70;;;;;;;12.15;36.56;100792.91;6256233;22;20348;-67
2022/04/30 11:44:37;;;;;;;3.67;1.48;;;;;;;12.45;35.51;100784.63;6248312;22;20452;-66
2022/04/30 11:47:22;;;;;;;3.22;1.50;;;;;;;12.52;34.64;100788.09;6280440;22;20074;-64
2022/04/30 11:50:10;;;;;;;4.43;1.77;;;;;;;12.56;34.52;100779.16;6248500;22;20351;-66
2022/04/30 11:52:56;;;;;;;5.43;1.90;;;;;;;12.72;35.08;100784.28;6281428;22;20023;-67
2022/04/30 11:55:40;;;;;;;4.47;1.90;;;;;;;12.80;35.17;100785.06;6225270;22;20018;-71
2022/04/30 11:58:25;;;;;;;5.25;1.90;;;;;;;12.95;34.70;100784.88;6248211;22;20093;-67
2022/04/30 12:01:31;;;;;;;7.85;1.60;;;;;;;13.01;34.97;100783.94;6224699;22;20034;-68
2022/04/30 12:04:15;;;;;;;4.60;2.25;;;;;;;12.56;35.41;100772.06;6247006;22;20054;-73
2022/04/30 12:07:02;;;;;;;6.22;2.30;;;;;;;12.56;36.90;100781.84;6247974;22;20073;-65
2022/04/30 12:09:50;;;;;;;3.20;1.75;;;;;;;12.47;36.89;100784.59;6268849;22;20088;-68
2022/04/30 12:12:36;;;;;;;4.57;2.05;;;;;;;12.58;37.07;100764.09;6247435;22;20513;-67
2022/04/30 12:15:22;;;;;;;3.38;1.90;;;;;;;13.42;35.05;100765.56;6258571;22;20076;-68
2022/04/30 12:27:28;;;;;;;6.63;1.92;;;;;;;14.62;31.37;100751.81;6248762;22;20065;-66
2022/04/30 12:30:16;;;;;;;3.45;1.95;;;;;;;14.15;31.51;100751.88;6258427;22;20236;-66
2022/04/30 12:33:05;;;;;;;6.15;2.13;;;;;;;13.94;33.19;100754.00;6281983;22;20070;-67
2022/04/30 12:35:58;;;;;;;6.30;2.47;;;;;;;13.83;33.11;100758.66;6271452;22;20022;-67
2022/04/30 12:38:53;;;;;;;5.40;2.17;;;;;;;14.02;33.24;100751.22;6256805;22;20022;-66
2022/04/30 12:41:37;;;;;;;4.88;1.65;;;;;;;13.28;32.23;100738.25;6281524;22;20069;-73
2022/04/30 12:44:22;;;;;;;3.58;1.50;;;;;;;13.24;32.79;100750.75;6258905;22;20026;-66
2022/04/30 12:47:06;;;;;;;4.15;1.65;;;;;;;12.68;33.17;100729.34;6256618;22;20469;-67
2022/04/30 12:49:51;;;;;;;2.80;1.23;;;;;;;12.55;33.48;100732.19;6258602;22;20038;-66
2022/04/30 12:52:35;;;;;;;2.67;1.50;;;;;;;12.72;33.73;100756.78;6246176;22;20042;-67
2022/04/30 12:55:21;;;;;;;7.32;1.73;;;;;;;12.42;34.61;100757.19;6259258;22;20078;-66
2022/04/30 12:58:07;;;;;;;3.30;1.60;;;;;;;12.13;35.66;100759.25;6272358;22;20391;-66
2022/04/30 13:00:54;;;;;;;5.40;1.90;;;;;;;11.78;36.61;100750.75;6260265;22;20069;-66
2022/04/30 13:03:38;;;;;;;8.35;1.85;;;;;;;11.78;37.50;100751.66;6281712;22;20086;-65
2022/04/30 13:06:23;;;;;;;7.63;1.67;;;;;;;11.63;37.17;100758.88;6279433;22;20377;-67
2022/04/30 13:15:15;;;;;;;3.45;1.65;;;;;;;11.07;42.69;100784.94;6258373;22;20515;-67
2022/04/30 13:18:01;;;;;;;6.40;1.98;;;;;;;11.20;43.42;100789.25;6236870;22;20017;-66
2022/04/30 13:20:46;;;;;;;5.10;2.10;;;;;;;11.38;48.31;100778.50;6281309;22;20026;-66
2022/04/30 13:23:30;;;;;;;9.13;2.70;;;;;;;11.34;52.73;100795.34;6255596;22;20444;-68
2022/04/30 13:26:14;;;;;;;4.38;2.13;;;;;;;11.34;53.21;100761.72;6270736;22;20085;-67
2022/04/30 13:28:59;;;;;;;7.80;2.60;;;;;;;11.27;53.55;100778.59;6256081;22;20026;-66
2022/04/30 13:31:43;;;;;;;10.20;3.42;;;;;;;11.32;55.75;100778.56;6247373;22;20061;-66
2022/04/30 13:34:28;;;;;;;7.95;3.50;;;;;;;11.11;56.33;100741.56;6281053;22;20042;-68
2022/04/30 13:37:12;;;;;;;5.05;2.70;;;;;;;11.49;54.90;100776.66;6225942;22;20428;-68
2022/04/30 13:39:57;;;;;;;5.95;2.78;;;;;;;11.45;53.01;100751.00;6257492;22;20022;-66
2022/04/30 13:42:45;;;;;;;4.63;2.00;;;;;;;11.72;51.91;100777.41;6278890;22;20023;-74
2022/04/30 13:45:29;;;;;;;8.32;2.30;;;;;;;11.56;52.78;100747.41;6280347;22;20039;-66
2022/04/30 13:48:14;;;;;;;9.65;3.17;;;;;;;11.89;51.15;100786.09;6245346;22;20059;-65